Time;durP1;ratioP1;P1;durP2;ratioP2;P2;SDS_P1;SDS_P2;PMS_P1;PMS_P2;Temp;Humidity;BMP_temperature;BMP_pressure;BME280_temperature;BME280_humidity;BME280_pressure;Samples;Min_cycle;Max_cycle;Signal;HPM_P1;HPM_P2
2022/05/24 00:05:04;;;;;;;1.10;1.00;;;20.40;87.20;;;20.51;55.44;97577.97;4883132;28;124816;-91
2022/05/24 00:07:31;;;;;;;1.90;1.17;;;20.20;87.60;;;20.43;55.47;97573.59;4866218;29;114552;-88
2022/05/24 00:13:59;;;;;;;1.20;1.10;;;20.10;87.90;;;20.24;55.86;97586.91;4883333;28;125293;-91
2022/05/24 00:20:16;;;;;;;1.40;1.20;;;19.90;88.30;;;20.10;56.08;97592.56;4882830;28;116519;-91
2022/05/24 00:26:51;;;;;;;1.10;1.00;;;19.70;88.70;;;19.99;56.45;97591.81;4883542;28;125123;-90
2022/05/24 00:32:59;;;;;;;1.50;1.40;;;19.70;89.50;;;19.88;57.07;97597.44;4883988;28;114627;-81
2022/05/24 00:39:08;;;;;;;1.20;1.00;;;19.50;90.10;;;19.75;57.82;97596.28;4883066;29;126370;-81
2022/05/24 00:49:10;;;;;;;1.17;0.90;;;19.40;90.50;;;19.70;57.94;97588.28;4883523;28;115128;-89
2022/05/24 00:54:13;;;;;;;0.97;0.83;;;19.30;90.70;;;19.78;58.03;97579.44;5241855;23;97808;-90
2022/05/24 00:59:49;;;;;;;1.00;0.90;;;19.40;90.90;;;19.81;57.92;97567.41;5831873;23;98513;-89
2022/05/24 01:05:57;;;;;;;1.00;0.83;;;19.40;91.00;;;19.92;58.13;97591.81;4921188;28;126239;-89
2022/05/24 01:12:16;;;;;;;0.90;0.80;;;18.10;90.50;;;19.96;57.96;97581.38;4921451;28;115892;-85
2022/05/24 01:18:24;;;;;;;0.90;0.80;;;19.50;91.10;;;20.03;58.12;97584.16;4921298;28;124762;-85
2022/05/24 01:28:55;;;;;;;0.90;0.80;;;19.50;91.10;;;20.03;57.89;97570.16;4924112;28;125238;-80
2022/05/24 01:41:48;;;;;;;0.90;0.73;;;19.60;91.10;;;20.15;57.51;97577.31;4923180;28;125147;-84
2022/05/24 01:51:47;;;;;;;1.00;0.90;;;18.60;90.60;;;20.15;57.55;97566.91;4899624;28;115034;-92
2022/05/24 01:58:02;;;;;;;1.13;0.90;;;19.50;91.00;;;20.18;57.37;97557.69;4885543;28;124755;-79
2022/05/24 02:11:35;;;;;;;1.10;0.90;;;19.60;90.90;;;20.13;57.13;97552.50;4885509;29;124756;-88
2022/05/24 02:17:49;;;;;;;1.83;0.80;;;19.60;90.90;;;20.13;57.13;97565.72;4885699;29;115888;-85
2022/05/24 02:23:59;;;;;;;0.93;0.83;;;19.60;90.80;;;20.11;56.89;97559.72;4885476;28;124777;-82
2022/05/24 02:30:08;;;;;;;0.80;0.70;;;19.50;90.70;;;20.09;57.06;97568.53;4885410;28;114881;-89
2022/05/24 02:46:47;;;;;;;0.90;0.80;;;19.50;90.80;;;19.99;57.26;97550.56;4884642;29;125083;-85
2022/05/24 02:49:17;;;;;;;1.00;0.90;;;19.40;90.90;;;20.01;57.24;97548.13;5412618;23;124401;-84
2022/05/24 02:55:26;;;;;;;1.00;0.80;;;19.40;90.90;;;20.00;57.40;97546.53;4923374;28;114986;-81
2022/05/24 02:58:31;;;;;;;1.10;0.90;;;19.30;91.10;;;20.01;57.47;97544.53;4889970;28;123755;-92
2022/05/24 03:04:39;;;;;;;0.80;0.70;;;19.40;91.10;;;19.99;57.41;97535.75;4922968;28;115276;-87
2022/05/24 03:10:48;;;;;;;1.17;0.90;;;19.50;91.20;;;19.98;57.88;97539.72;4922293;28;125106;-92
2022/05/24 03:16:56;;;;;;;1.37;0.90;;;19.50;91.40;;;19.97;58.05;97550.16;4922491;28;116219;-87
2022/05/24 03:23:06;;;;;;;1.00;0.90;;;19.40;91.50;;;19.97;58.29;97558.56;4922188;28;125099;-86
2022/05/24 03:26:11;;;;;;;1.30;1.00;;;19.40;91.60;;;19.95;58.26;97568.56;4913064;28;123560;-93
2022/05/24 03:29:36;;;;;;;1.17;1.07;;;19.30;91.50;;;19.93;58.25;97549.34;4900237;28;115146;-93
2022/05/24 03:35:44;;;;;;;2.20;1.03;;;19.30;91.60;;;19.88;58.48;97563.81;4906081;28;125163;-93
2022/05/24 03:41:52;;;;;;;1.53;1.00;;;19.30;91.70;;;19.81;58.64;97573.00;4921125;28;115371;-92
2022/05/24 03:44:20;;;;;;;1.10;1.00;;;19.20;91.90;;;19.82;58.83;97580.22;4921499;28;113632;-91
2022/05/24 03:54:12;;;;;;;1.47;1.00;;;19.30;92.00;;;19.76;58.83;97558.63;4903116;28;115638;-91
2022/05/24 04:00:23;;;;;;;0.90;0.80;;;19.20;92.00;;;19.80;58.70;97573.41;4902814;28;125101;-91
2022/05/24 04:02:52;;;;;;;1.00;0.90;;;19.10;92.00;;;19.84;58.74;97575.00;4899487;28;122425;-93
2022/05/24 04:09:00;;;;;;;0.80;0.80;;;17.90;91.40;;;19.84;58.47;97575.00;4891452;28;114947;-93
2022/05/24 04:15:10;;;;;;;1.07;0.97;;;19.20;91.90;;;19.80;58.34;97579.84;4892953;28;124237;-92
2022/05/24 04:18:15;;;;;;;1.23;0.83;;;19.20;91.90;;;19.80;58.59;97563.03;4900243;28;116002;-92
2022/05/24 04:24:23;;;;;;;1.57;1.00;;;19.30;91.90;;;19.82;58.55;97571.81;4898327;28;125144;-92
2022/05/24 04:30:32;;;;;;;1.37;0.90;;;19.20;92.20;;;19.83;58.36;97593.03;4898005;28;114548;-85
2022/05/24 04:32:59;;;;;;;1.40;0.93;;;19.30;91.90;;;19.82;58.30;97599.03;4900970;28;114728;-94
2022/05/24 04:36:24;;;;;;;1.00;0.90;;;19.20;91.90;;;19.78;58.23;97601.84;4881547;28;123693;-92
2022/05/24 04:42:32;;;;;;;2.60;1.00;;;19.20;91.80;;;19.80;58.48;97582.63;4901995;28;115168;-92
2022/05/24 04:49:24;;;;;;;0.93;0.83;;;19.30;91.70;;;19.80;57.97;97607.88;4900975;28;126495;-93
2022/05/24 04:55:33;;;;;;;1.10;1.00;;;19.20;91.60;;;19.83;57.75;97607.06;4881312;29;115403;-93
2022/05/24 04:58:00;;;;;;;2.40;1.10;;;19.20;91.60;;;19.87;57.87;97629.47;4883845;29;113574;-93
2022/05/24 05:00:48;;;;;;;1.33;1.23;;;19.20;91.60;;;19.88;57.54;97624.66;4879075;29;123891;-93
2022/05/24 05:06:58;;;;;;;1.03;0.93;;;19.30;91.40;;;19.83;57.52;97621.06;4878713;29;115267;-94
2022/05/24 05:13:27;;;;;;;1.20;0.93;;;19.20;91.30;;;19.79;57.19;97617.47;4879844;29;125096;-92
2022/05/24 05:15:55;;;;;;;1.10;0.90;;;19.20;91.30;;;19.80;57.39;97615.44;4878619;29;124144;-93
2022/05/24 05:22:05;;;;;;;1.93;1.10;;;19.30;91.30;;;19.81;57.13;97609.47;4863682;29;115718;-93
2022/05/24 05:24:34;;;;;;;1.37;1.17;;;19.20;91.20;;;19.81;56.96;97617.88;4877672;29;124631;-93
2022/05/24 05:27:20;;;;;;;1.40;1.17;;;19.20;91.40;;;19.83;56.97;97623.88;4883593;28;121520;-84
2022/05/24 05:37:11;;;;;;;1.70;1.23;;;18.80;90.80;;;19.78;57.16;97641.09;4878264;28;125103;-93
2022/05/24 05:43:41;;;;;;;1.83;1.10;;;19.20;90.90;;;19.82;56.71;97646.69;4884684;28;115356;-79
2022/05/24 05:46:28;;;;;;;1.47;1.37;;;19.30;90.90;;;19.81;56.78;97640.28;4881871;28;113002;-91
2022/05/24 05:48:55;;;;;;;2.13;1.53;;;19.20;90.80;;;19.84;56.44;97647.09;4882300;28;122820;-93
2022/05/24 05:55:05;;;;;;;1.70;1.20;;;20.00;90.80;;;19.83;56.30;97640.69;4904432;28;115328;-91
2022/05/24 05:57:56;;;;;;;2.23;1.60;;;19.40;90.50;;;19.82;55.82;97641.88;4886795;28;113231;-93
2022/05/24 06:00:25;;;;;;;2.00;1.30;;;19.40;90.30;;;19.82;55.91;97644.69;4887852;28;123343;-93
2022/05/24 06:02:53;;;;;;;2.27;1.73;;;19.30;90.20;;;19.82;55.45;97655.88;4878975;29;123694;-93
2022/05/24 06:09:02;;;;;;;1.83;1.20;;;19.10;89.50;;;19.84;55.21;97666.72;4902450;28;114886;-93
2022/05/24 06:15:12;;;;;;;2.80;1.30;;;19.40;89.50;;;19.90;55.03;97667.09;4902104;28;124065;-94
2022/05/24 06:17:50;;;;;;;1.90;1.23;;;19.40;89.30;;;19.91;54.60;97661.13;4869520;28;116074;-93
2022/05/24 06:24:03;;;;;;;1.93;1.40;;;19.40;88.70;;;19.96;54.13;97649.50;4884781;28;124943;-83
2022/05/24 06:30:12;;;;;;;1.40;1.30;;;19.50;88.30;;;20.00;54.18;97674.72;4903529;28;115021;-92
2022/05/24 06:36:20;;;;;;;1.97;1.27;;;19.60;88.00;;;20.09;54.12;97658.25;4901350;28;125082;-95
2022/05/24 06:39:06;;;;;;;3.93;1.40;;;19.60;88.00;;;20.16;53.61;97674.28;4867621;28;122126;-94
2022/05/24 06:45:15;;;;;;;3.67;1.80;;;19.70;87.10;;;20.22;53.10;97679.06;4899004;28;115052;-96
2022/05/24 06:47:44;;;;;;;1.80;1.30;;;19.70;87.00;;;20.25;52.90;97692.28;4891769;28;124956;-93
2022/05/24 06:50:13;;;;;;;2.40;1.23;;;19.70;86.80;;;20.29;52.72;97693.06;4866196;28;122938;-95
2022/05/24 06:52:40;;;;;;;3.27;1.77;;;19.80;86.70;;;20.33;52.76;97709.09;4875663;28;114194;-93
2022/05/24 06:55:08;;;;;;;1.63;1.37;;;19.80;86.40;;;20.32;52.65;97707.50;4844759;28;113002;-95
2022/05/24 06:57:37;;;;;;;2.77;1.53;;;19.80;86.00;;;20.32;52.73;97710.31;4868980;28;123839;-94
2022/05/24 07:03:20;;;;;;;1.40;1.20;;;19.90;85.80;;;20.28;52.25;97727.13;4871015;28;114547;-93
2022/05/24 07:06:07;;;;;;;1.43;1.20;;;19.80;85.40;;;20.27;52.45;97793.66;4842262;29;113450;-92
2022/05/24 07:08:34;;;;;;;2.77;1.20;;;19.80;85.40;;;20.21;50.41;97828.13;4877795;28;123576;-91
2022/05/24 07:11:01;;;;;;;3.00;1.07;;;19.80;83.10;;;19.95;49.98;97865.75;4855273;28;122895;-93
2022/05/24 07:13:29;;;;;;;2.93;1.00;;;19.50;81.60;;;19.49;51.62;97872.03;4868534;28;113417;-92
2022/05/24 07:16:14;;;;;;;4.33;1.20;;;19.20;83.40;;;18.90;52.86;97856.13;4869587;29;114044;-92
2022/05/24 07:22:22;;;;;;;1.10;1.00;;;18.40;84.60;;;18.03;54.59;97856.66;4895629;28;124920;-93
2022/05/24 07:25:54;;;;;;;1.60;1.10;;;18.00;85.50;;;17.79;55.27;97841.25;4828214;29;113525;-94
2022/05/24 07:32:18;;;;;;;2.53;1.00;;;17.40;86.60;;;17.36;55.76;97851.16;4850664;29;124631;-92
2022/05/24 07:35:38;;;;;;;1.20;1.10;;;17.20;86.90;;;17.25;55.94;97859.38;4804285;29;123305;-92
2022/05/24 07:38:50;;;;;;;1.43;0.90;;;17.10;87.20;;;17.23;56.17;97862.53;4816790;29;112417;-93
2022/05/24 07:50:59;;;;;;;3.27;1.10;;;16.90;88.40;;;17.35;56.38;97877.44;4822833;29;115306;-93
2022/05/24 07:57:25;;;;;;;1.77;1.00;;;17.00;88.70;;;17.36;56.23;97884.66;4837800;29;124617;-94
2022/05/24 08:00:12;;;;;;;2.37;1.00;;;17.00;88.80;;;17.30;56.66;97886.16;4801521;29;121941;-94
2022/05/24 08:02:41;;;;;;;1.57;1.10;;;17.00;89.00;;;17.29;56.45;97888.13;4787900;29;112822;-94
2022/05/24 08:05:21;;;;;;;1.00;0.80;;;16.90;88.90;;;17.33;56.84;97885.38;4769219;29;112230;-92
2022/05/24 08:11:29;;;;;;;1.83;1.00;;;17.00;89.40;;;17.39;57.09;97895.84;4834141;29;123589;-92
2022/05/24 08:15:10;;;;;;;1.73;1.33;;;17.00;89.70;;;17.37;57.01;97903.81;4832880;29;114879;-90
2022/05/24 08:21:48;;;;;;;1.27;1.00;;;17.00;89.80;;;17.38;57.01;97899.00;4822197;29;124974;-95
2022/05/24 08:24:16;;;;;;;1.10;1.00;;;17.00;89.80;;;17.42;57.08;97899.88;4799058;29;122174;-92
2022/05/24 08:27:35;;;;;;;1.50;0.87;;;17.00;89.90;;;17.52;56.85;97901.19;4802606;29;113985;-93
2022/05/24 08:30:13;;;;;;;1.57;1.00;;;17.10;90.00;;;17.58;56.73;97919.22;4773880;29;114070;-92
2022/05/24 08:33:07;;;;;;;1.10;0.80;;;17.10;89.90;;;17.63;56.86;97916.91;4772394;29;124504;-88
2022/05/24 08:35:38;;;;;;;1.20;0.97;;;17.20;89.90;;;17.69;56.70;97922.94;4801298;29;124522;-86
2022/05/24 08:49:27;;;;;;;1.63;1.10;;;17.30;89.30;;;17.80;55.83;97939.84;4796308;29;124332;-92
2022/05/24 08:52:45;;;;;;;0.90;0.80;;;17.40;88.90;;;17.86;55.77;97941.91;4797864;29;112253;-87
2022/05/24 08:56:15;;;;;;;1.23;0.80;;;17.40;88.70;;;17.95;55.30;97944.44;4823271;29;111947;-89
2022/05/24 08:59:36;;;;;;;2.07;1.10;;;17.50;88.50;;;18.00;54.84;97946.88;4802521;29;126447;-95
2022/05/24 09:02:24;;;;;;;2.07;1.10;;;17.50;87.60;;;18.00;54.22;97946.88;4810453;29;122051;-92
2022/05/24 09:05:30;;;;;;;1.30;1.00;;;17.60;86.60;;;18.08;53.58;97947.75;4813704;29;114143;-92
2022/05/24 09:08:31;;;;;;;0.97;0.87;;;17.60;85.80;;;18.14;53.01;97937.84;4828894;29;113267;-92
2022/05/24 09:12:07;;;;;;;1.10;1.00;;;17.70;85.20;;;18.17;52.69;97937.06;4839868;29;123294;-91
2022/05/24 09:15:08;;;;;;;1.33;0.90;;;17.70;84.60;;;18.25;52.68;97929.56;4852659;29;123395;-92
2022/05/24 09:25:00;;;;;;;1.60;1.07;;;18.00;84.00;;;18.52;51.83;97955.38;4862851;29;125184;-86
2022/05/24 09:27:49;;;;;;;1.07;0.90;;;18.00;83.80;;;18.61;51.79;97941.84;4862597;29;125849;-92
2022/05/24 09:30:29;;;;;;;7.60;1.03;;;18.10;83.80;;;18.69;51.89;97949.13;4845730;29;114044;-93
2022/05/24 09:33:23;;;;;;;1.00;0.80;;;18.20;83.70;;;18.76;51.44;97949.22;4854296;29;113795;-93
2022/05/24 09:35:59;;;;;;;1.00;0.80;;;18.30;83.30;;;18.80;51.02;97965.22;4858616;28;123793;-92
2022/05/24 09:38:45;;;;;;;1.83;1.03;;;18.30;82.80;;;18.83;49.81;97979.22;4868831;28;124069;-92
2022/05/24 09:41:19;;;;;;;1.03;0.90;;;18.40;81.10;;;18.84;49.12;97964.06;4873038;28;114523;-93
2022/05/24 09:44:06;;;;;;;1.97;1.00;;;18.40;80.00;;;18.86;49.01;97955.25;4841179;28;113478;-91
2022/05/24 09:46:36;;;;;;;2.10;0.93;;;18.40;79.60;;;18.89;49.17;97963.72;4847595;28;124446;-91
2022/05/24 09:49:31;;;;;;;1.10;1.00;;;18.50;79.90;;;18.95;48.73;97973.34;4857814;29;124147;-92
2022/05/24 09:52:12;;;;;;;1.30;1.10;;;18.50;79.20;;;18.96;47.89;97979.75;4854676;28;113082;-90
2022/05/24 09:54:59;;;;;;;2.07;0.80;;;18.50;78.00;;;18.95;48.03;97973.34;4864128;28;113736;-91
2022/05/24 09:57:39;;;;;;;1.20;0.77;;;18.60;78.10;;;18.97;47.63;97975.75;4836643;29;123083;-89
2022/05/24 10:00:19;;;;;;;1.10;0.80;;;18.60;77.80;;;19.03;47.83;97987.41;4859016;29;122981;-92
2022/05/24 10:02:48;;;;;;;1.37;0.90;;;18.60;77.90;;;19.09;47.46;97988.63;4857965;28;114725;-93
2022/05/24 10:05:20;;;;;;;1.80;0.90;;;18.60;77.20;;;19.15;47.30;97967.47;4876520;28;114287;-93
2022/05/24 10:08:03;;;;;;;1.13;0.87;;;18.70;77.00;;;19.25;46.97;97986.34;4858832;28;123469;-93
2022/05/24 10:10:56;;;;;;;0.90;0.80;;;18.80;76.70;;;19.35;46.70;97973.63;4872802;28;122440;-93
2022/05/24 10:14:22;;;;;;;0.80;0.70;;;18.80;76.50;;;19.43;46.97;97986.47;4865469;28;114368;-92
2022/05/24 10:17:25;;;;;;;0.90;0.80;;;18.90;76.60;;;19.50;46.65;97985.69;4861575;28;114238;-94
2022/05/24 10:20:36;;;;;;;2.50;0.80;;;19.00;76.50;;;19.55;46.56;97985.31;4826727;28;123201;-93
2022/05/24 10:23:38;;;;;;;2.30;1.37;;;19.10;76.20;;;19.61;46.24;97997.75;4858443;28;121586;-92
2022/05/24 10:26:29;;;;;;;1.27;0.77;;;19.10;75.60;;;;;;4879191;28;114205;-92
2022/05/24 10:29:25;;;;;;;1.20;1.00;;;19.10;74.70;;;19.66;44.90;97983.41;4861119;28;114019;-93
2022/05/24 10:32:03;;;;;;;0.80;0.70;;;19.20;73.70;;;19.65;44.41;97992.97;4873463;28;124181;-94
2022/05/24 10:38:18;;;;;;;1.27;0.90;;;19.20;72.40;;;19.73;44.05;97972.22;4877631;28;113809;-93
2022/05/24 10:40:54;;;;;;;1.33;1.00;;;19.30;72.30;;;19.82;43.51;97961.44;4865289;28;112952;-92
2022/05/24 10:43:51;;;;;;;1.93;0.90;;;19.30;71.50;;;19.93;43.73;97969.09;4852635;28;122695;-93
2022/05/24 10:46:30;;;;;;;1.40;1.00;;;19.40;71.30;;;20.03;43.51;97966.31;4865871;28;123477;-93
2022/05/24 10:49:15;;;;;;;1.17;0.90;;;19.50;71.50;;;20.12;43.20;97974.34;4882328;28;113331;-92
2022/05/24 10:52:00;;;;;;;1.50;0.90;;;19.60;71.00;;;20.17;42.61;97957.13;4872209;28;114422;-91
2022/05/24 10:54:53;;;;;;;1.47;0.90;;;19.70;70.30;;;20.24;42.27;97971.19;4843418;29;124074;-94
2022/05/24 10:57:30;;;;;;;0.90;0.80;;;19.70;69.50;;;20.27;42.09;97956.38;4870340;28;122820;-94
2022/05/24 11:00:03;;;;;;;1.00;0.90;;;19.80;68.70;;;20.29;41.78;97968.00;4848484;28;114662;-93
2022/05/24 11:03:10;;;;;;;1.00;0.90;;;19.80;68.50;;;20.30;41.91;97963.97;4841026;28;113693;-93
2022/05/24 11:05:45;;;;;;;2.23;1.00;;;19.80;68.30;;;20.38;41.82;97983.63;4803889;29;123472;-93
2022/05/24 11:08:35;;;;;;;1.40;0.90;;;19.90;68.40;;;20.42;41.81;97962.81;4783900;29;123056;-92
2022/05/24 11:11:54;;;;;;;1.13;0.90;;;20.00;68.30;;;20.52;41.92;97980.84;4827468;29;114701;-93
2022/05/24 11:14:28;;;;;;;1.00;0.90;;;20.00;68.10;;;20.56;41.33;97966.88;4809650;29;114845;-93
2022/05/24 11:16:56;;;;;;;1.00;0.90;;;20.10;67.80;;;20.56;41.58;97967.66;4810457;29;123554;-93
2022/05/24 11:19:35;;;;;;;1.10;0.90;;;20.10;67.40;;;20.59;41.34;97961.25;4785367;29;123817;-93
2022/05/24 11:22:30;;;;;;;1.00;0.77;;;20.10;67.50;;;20.65;41.55;97970.88;4804860;29;113639;-94
2022/05/24 11:25:19;;;;;;;1.30;1.07;;;20.20;67.80;;;20.69;41.86;97962.47;4808911;29;112160;-91
2022/05/24 11:28:12;;;;;;;1.00;0.83;;;20.20;67.60;;;20.75;41.30;97960.84;4803641;29;123892;-92
2022/05/24 11:30:41;;;;;;;0.90;0.73;;;20.30;68.30;;;20.79;41.37;97970.06;4804585;29;123013;-91
2022/05/24 11:33:16;;;;;;;1.20;1.00;;;20.30;67.20;;;20.87;41.57;97959.63;4799230;29;113249;-91
2022/05/24 11:35:52;;;;;;;1.10;0.83;;;20.30;67.40;;;20.99;41.01;97952.81;4803213;29;114246;-92
2022/05/24 11:38:21;;;;;;;1.30;0.80;;;20.40;67.50;;;21.05;41.06;97949.19;4795546;29;123218;-93
2022/05/24 11:40:54;;;;;;;1.30;1.00;;;20.50;67.10;;;21.07;41.22;97957.22;4801939;29;123085;-92
2022/05/24 11:43:36;;;;;;;0.90;0.80;;;20.60;67.00;;;21.07;40.90;97969.25;4836704;29;112732;-94
2022/05/24 11:46:34;;;;;;;1.30;0.93;;;20.60;66.40;;;21.04;40.37;97964.47;4850927;29;114502;-93
2022/05/24 11:49:22;;;;;;;2.30;0.80;;;20.60;65.90;;;21.05;40.64;97966.03;4853002;29;124073;-94
2022/05/24 11:51:51;;;;;;;0.90;0.70;;;20.60;65.80;;;21.05;40.61;97956.81;4851261;29;124181;-92
2022/05/24 11:54:18;;;;;;;1.07;0.80;;;20.60;65.80;;;21.05;40.81;97965.25;4835978;29;114550;-93
2022/05/24 11:57:02;;;;;;;2.10;1.00;;;20.60;65.70;;;21.03;40.30;97974.06;4858974;28;112673;-92
2022/05/24 11:59:40;;;;;;;1.20;0.90;;;20.60;65.60;;;20.99;40.77;97978.91;4850570;29;124311;-92
2022/05/24 12:02:26;;;;;;;1.10;1.00;;;20.60;65.60;;;20.92;40.47;97964.84;4837871;29;121775;-91
2022/05/24 12:08:34;;;;;;;1.33;1.13;;;20.50;65.30;;;20.82;41.16;97969.28;4836107;29;114704;-93
2022/05/24 12:11:31;;;;;;;1.50;1.00;;;20.40;65.60;;;20.85;41.15;97968.47;4848226;28;124325;-94
2022/05/24 12:14:14;;;;;;;1.30;0.93;;;20.50;65.50;;;20.84;41.12;97974.50;4843496;28;122690;-92
2022/05/24 12:17:10;;;;;;;1.13;1.00;;;20.50;65.60;;;20.83;40.97;97972.91;4854926;28;113808;-94
2022/05/24 12:19:42;;;;;;;2.50;0.80;;;20.40;65.60;;;20.85;40.99;97976.09;4873595;28;114184;-92
2022/05/24 12:22:20;;;;;;;1.43;0.90;;;20.40;65.50;;;20.86;40.62;97972.09;4871789;28;123319;-92
2022/05/24 12:24:57;;;;;;;1.53;0.83;;;20.40;65.50;;;20.92;40.62;97976.09;4869970;28;123874;-93
2022/05/24 12:27:46;;;;;;;2.70;1.10;;;20.50;65.60;;;20.96;40.66;97968.47;4862572;28;113303;-92
2022/05/24 12:30:39;;;;;;;1.03;0.90;;;20.50;65.10;;;21.02;40.40;97961.25;4854585;28;113781;-93
2022/05/24 12:33:33;;;;;;;2.37;1.03;;;20.60;65.20;;;21.13;40.48;97973.25;4873931;28;124203;-93
2022/05/24 12:36:21;;;;;;;2.13;1.40;;;20.70;65.60;;;21.27;39.56;97961.19;4869231;28;122911;-94
2022/05/24 12:38:59;;;;;;;1.30;0.90;;;20.70;63.40;;;21.35;39.17;97961.97;4876112;28;114840;-93
2022/05/24 12:41:57;;;;;;;2.70;0.90;;;20.80;63.30;;;21.40;38.62;97958.78;4877917;28;112985;-94
2022/05/24 12:44:38;;;;;;;1.00;0.80;;;20.90;62.30;;;21.51;38.65;97956.75;4859556;28;123260;-92
2022/05/24 12:47:05;;;;;;;1.20;1.10;;;22.40;63.60;;;21.60;37.88;97959.13;4872595;28;123762;-93
2022/05/24 12:49:52;;;;;;;1.27;0.90;;;21.10;61.50;;;21.64;38.12;97956.31;4875834;28;114388;-91
2022/05/24 12:52:26;;;;;;;0.97;0.80;;;21.10;61.20;;;21.78;38.46;97957.03;4869237;28;114628;-93
2022/05/24 12:54:56;;;;;;;3.23;1.10;;;21.30;61.80;;;21.97;37.83;97952.13;4868048;28;124055;-91
2022/05/24 12:57:32;;;;;;;1.00;0.90;;;21.30;61.10;;;22.09;37.45;97954.50;4849915;28;122959;-90
2022/05/24 13:00:14;;;;;;;1.50;1.10;;;21.50;60.60;;;22.15;37.17;97947.22;4851701;29;114910;-91
2022/05/24 13:02:41;;;;;;;0.90;0.80;;;21.60;60.40;;;22.24;36.89;97946.78;4868035;28;114887;-89
2022/05/24 13:05:10;;;;;;;1.00;0.90;;;21.70;60.20;;;22.24;36.40;97952.41;4870621;28;124470;-92
2022/05/24 13:07:51;;;;;;;0.90;0.70;;;21.70;58.60;;;22.18;36.44;97951.22;4836449;29;124628;-91
2022/05/24 13:10:21;;;;;;;1.20;1.10;;;21.70;58.60;;;22.14;36.35;97970.13;4853308;29;114488;-91
2022/05/24 13:12:56;;;;;;;1.10;0.90;;;21.80;58.20;;;22.04;36.45;97975.41;4872810;28;114200;-91
2022/05/24 13:15:49;;;;;;;1.10;0.90;;;21.70;58.20;;;21.95;37.22;97969.44;4890058;28;124635;-91
2022/05/24 13:18:24;;;;;;;1.60;1.07;;;21.60;58.70;;;21.86;37.14;97969.06;4840120;29;122588;-90
2022/05/24 13:20:55;;;;;;;1.97;0.80;;;21.50;58.90;;;21.83;37.61;97972.69;4861264;28;114202;-91
2022/05/24 13:23:31;;;;;;;1.83;1.00;;;21.50;59.40;;;21.82;37.39;97973.91;4857715;28;114013;-92
2022/05/24 13:26:08;;;;;;;1.50;0.90;;;21.40;59.20;;;21.78;37.37;97975.94;4855449;28;124063;-90
2022/05/24 13:28:48;;;;;;;2.80;1.00;;;21.40;58.90;;;21.75;37.57;97973.94;4868767;28;124761;-90
2022/05/24 13:34:24;;;;;;;1.43;0.90;;;21.30;59.20;;;21.97;36.96;97963.38;4845164;29;114647;-91
2022/05/24 13:37:06;;;;;;;0.93;0.80;;;21.40;59.30;;;22.12;37.46;97958.50;4854416;28;124740;-90
2022/05/24 13:39:38;;;;;;;1.20;0.90;;;21.50;59.70;;;22.31;37.05;97963.63;4858229;28;124290;-89
2022/05/24 13:42:17;;;;;;;2.07;1.40;;;21.60;59.70;;;22.48;37.27;97959.91;4876167;28;114291;-91
2022/05/24 13:45:24;;;;;;;1.00;0.70;;;21.80;59.70;;;22.68;36.71;97962.19;4873767;28;113078;-92
2022/05/24 13:47:56;;;;;;;1.30;0.80;;;22.00;59.40;;;22.81;36.25;97971.75;4828721;29;124111;-90
2022/05/24 13:50:40;;;;;;;0.97;0.77;;;22.10;58.60;;;22.84;35.88;97965.28;4829571;29;123990;-89
2022/05/24 13:53:46;;;;;;;1.53;0.97;;;22.20;57.90;;;22.84;35.48;97956.81;4856115;29;115147;-94
2022/05/24 13:57:09;;;;;;;2.23;0.93;;;22.30;57.10;;;22.81;34.95;97965.28;4845571;29;116135;-95
2022/05/24 14:00:41;;;;;;;1.00;0.80;;;22.30;57.00;;;22.70;35.56;97965.38;4862803;29;123999;-94
2022/05/24 14:10:50;;;;;;;1.50;1.00;;;22.40;57.00;;;23.13;35.13;97959.38;4863648;29;114898;-94
2022/05/24 14:17:00;;;;;;;2.57;0.97;;;22.60;56.40;;;23.40;34.79;97961.53;4864294;28;124641;-94
2022/05/24 14:19:28;;;;;;;1.00;0.90;;;22.80;56.00;;;23.41;34.87;97954.69;4879226;29;114363;-94
2022/05/24 14:22:53;;;;;;;1.10;0.83;;;22.90;56.10;;;23.41;35.36;97954.69;4897717;28;113642;-95
2022/05/24 14:25:19;;;;;;;1.10;0.77;;;23.00;56.20;;;23.38;35.21;97959.16;4901726;28;124883;-95
2022/05/24 14:27:46;;;;;;;1.00;0.90;;;22.90;56.20;;;23.37;35.32;97966.81;4898873;28;124462;-94
2022/05/24 14:30:14;;;;;;;1.53;1.07;;;22.90;56.20;;;23.36;35.53;97961.59;4893766;28;114187;-94
2022/05/24 14:32:41;;;;;;;1.30;0.90;;;22.90;56.40;;;23.34;35.45;97952.75;4881398;28;114796;-94
2022/05/24 14:35:28;;;;;;;0.93;0.83;;;22.90;56.30;;;23.37;35.64;97964.00;4881363;29;124813;-90
2022/05/24 14:38:53;;;;;;;2.40;0.90;;;23.00;56.70;;;23.36;35.82;97958.78;4895636;28;123585;-95
2022/05/24 14:45:04;;;;;;;1.37;0.80;;;23.00;56.10;;;23.34;35.89;97953.53;4903921;28;114948;-89
2022/05/24 14:55:25;;;;;;;2.43;0.90;;;23.00;56.60;;;23.48;35.59;97957.44;4884430;28;117256;-94
2022/05/24 14:58:50;;;;;;;2.10;1.00;;;23.00;56.40;;;23.51;35.56;97965.88;4873994;28;115775;-94
2022/05/24 15:04:58;;;;;;;1.30;0.90;;;23.10;56.20;;;23.38;35.43;97959.94;4903397;28;124843;-86
2022/05/24 15:20:24;;;;;;;3.40;1.20;;;22.80;55.60;;;23.12;35.92;97974.72;4901731;28;115307;-95
2022/05/24 15:23:15;;;;;;;2.93;1.20;;;22.70;56.00;;;23.18;36.02;97972.25;4899234;28;113633;-94
2022/05/24 15:25:53;;;;;;;1.20;0.83;;;22.80;56.40;;;23.31;36.03;97974.13;4884097;28;123198;-94
2022/05/24 15:28:25;;;;;;;1.10;0.80;;;22.80;56.80;;;23.44;35.93;97976.41;4879160;28;124486;-94
2022/05/24 15:31:11;;;;;;;3.47;1.00;;;22.90;56.80;;;23.49;36.11;97975.97;4895499;28;113560;-95
2022/05/24 15:33:41;;;;;;;1.90;0.93;;;23.00;56.70;;;23.54;36.00;97961.41;4896221;28;114698;-95
2022/05/24 15:36:26;;;;;;;1.93;0.90;;;23.00;56.80;;;23.64;35.95;97966.09;4899325;28;124155;-95
2022/05/24 15:38:55;;;;;;;1.93;0.90;;;23.10;56.80;;;23.71;35.79;97968.88;4866178;28;123440;-96
2022/05/24 15:41:22;;;;;;;1.10;0.80;;;23.10;56.80;;;23.70;35.32;97972.91;4890639;28;114816;-94
2022/05/24 15:47:59;;;;;;;1.73;0.90;;;23.20;55.80;;;23.63;35.18;97984.25;4879962;29;124479;-94
2022/05/24 15:50:51;;;;;;;2.23;1.00;;;23.20;56.20;;;23.56;34.94;97984.31;4878175;29;123912;-95
2022/05/24 15:53:36;;;;;;;1.87;1.07;;;23.20;54.90;;;23.50;34.92;97983.19;4862994;29;115042;-94
2022/05/24 15:56:06;;;;;;;1.00;0.87;;;23.10;54.80;;;23.44;34.79;97984.88;4863200;29;115333;-94
2022/05/24 16:02:34;;;;;;;0.90;0.80;;;23.00;53.70;;;23.18;34.63;97989.94;4880625;29;124826;-93
2022/05/24 16:11:53;;;;;;;0.90;0.80;;;22.80;54.20;;;23.13;35.00;97998.84;4805987;29;124793;-78
2022/05/24 16:18:06;;;;;;;1.20;0.90;;;22.70;54.00;;;23.07;34.94;98000.53;4808295;29;115372;-85
2022/05/24 16:24:15;;;;;;;1.00;0.80;;;22.70;54.10;;;23.02;35.18;97998.94;4807695;29;125149;-77
2022/05/24 16:30:23;;;;;;;2.70;0.90;;;22.60;54.30;;;23.00;35.34;98007.03;4808029;29;115254;-76
2022/05/24 16:36:33;;;;;;;0.93;0.80;;;22.50;53.90;;;22.78;35.22;98014.78;4801768;29;125117;-84
2022/05/24 16:39:37;;;;;;;0.90;0.70;;;22.40;54.10;;;22.71;34.88;98012.84;4788050;29;124439;-91
2022/05/24 16:42:06;;;;;;;1.03;0.80;;;22.40;54.10;;;22.68;35.05;98013.66;4784708;29;114332;-94
2022/05/24 16:44:54;;;;;;;2.07;1.00;;;22.30;54.10;;;22.65;35.43;98008.06;4823726;29;113590;-94
2022/05/24 16:51:04;;;;;;;1.00;0.90;;;22.20;54.10;;;22.55;35.53;97998.47;4869111;28;124862;-92
2022/05/24 16:53:53;;;;;;;0.97;0.80;;;22.20;54.40;;;22.52;35.54;97985.22;4890263;28;115984;-94
2022/05/24 16:59:25;;;;;;;1.00;0.73;;;22.10;54.50;;;22.48;35.90;97993.69;4870610;29;124194;-92
2022/05/24 17:01:51;;;;;;;2.00;1.17;;;22.00;54.80;;;22.54;35.94;97990.44;4817082;29;123924;-95
2022/05/24 17:04:19;;;;;;;1.00;0.90;;;22.10;55.00;;;22.52;35.79;97987.25;4860381;29;114492;-96
2022/05/24 17:06:47;;;;;;;1.80;1.10;;;22.00;54.60;;;22.45;35.66;97986.06;4845059;29;112455;-93
2022/05/24 17:09:32;;;;;;;1.23;0.90;;;22.00;54.70;;;22.42;36.04;98003.78;4861176;29;123216;-94